createdAt,value
2023-01-21T00:02:48.433Z,17.30
2023-01-21T00:07:52.885Z,17.03
2023-01-21T00:12:55.936Z,17.70
2023-01-21T00:17:59.031Z,17.90
2023-01-21T00:23:03.883Z,17.50
2023-01-21T00:28:07.019Z,16.13
2023-01-21T00:33:10.150Z,17.47
2023-01-21T00:38:14.666Z,17.33
2023-01-21T00:43:17.904Z,17.53
2023-01-21T00:48:21.634Z,17.83
2023-01-21T00:53:26.398Z,19.20
2023-01-21T00:58:29.777Z,19.23
2023-01-21T01:03:33.898Z,20.63
2023-01-21T01:08:38.518Z,18.53
2023-01-21T01:13:42.112Z,18.40
2023-01-21T01:18:45.232Z,17.90
2023-01-21T01:23:52.184Z,18.43
2023-01-21T01:28:55.389Z,17.83
2023-01-21T01:33:58.877Z,18.60
2023-01-21T01:39:04.035Z,16.90
2023-01-21T01:44:45.523Z,15.80
2023-01-21T01:49:49.897Z,14.63
2023-01-21T01:54:58.619Z,13.97
2023-01-21T02:00:04.224Z,15.07
2023-01-21T02:05:10.955Z,14.87
2023-01-21T02:10:16.577Z,15.37
2023-01-21T02:15:21.569Z,14.83
2023-01-21T02:21:06.672Z,12.33
2023-01-21T02:26:38.855Z,14.37
2023-01-21T02:32:10.854Z,15.53
2023-01-21T02:37:24.061Z,16.10
2023-01-21T02:42:34.291Z,15.07
2023-01-21T02:47:46.279Z,15.27
2023-01-21T02:52:57.958Z,14.03
2023-01-21T02:58:03.953Z,15.10
2023-01-21T03:03:46.864Z,15.30
2023-01-21T03:08:55.695Z,14.70
2023-01-21T03:14:23.230Z,16.50
2023-01-21T03:19:34.938Z,16.57
2023-01-21T03:24:41.662Z,16.23
2023-01-21T03:29:47.791Z,16.13
2023-01-21T03:34:56.242Z,15.00
2023-01-21T03:40:12.462Z,15.27
2023-01-21T03:45:15.865Z,14.43
2023-01-21T03:50:23.823Z,14.53
2023-01-21T03:55:28.389Z,14.43
2023-01-21T04:00:31.737Z,13.50
2023-01-21T04:05:36.104Z,13.57
2023-01-21T04:10:41.039Z,15.50
2023-01-21T04:15:44.335Z,15.67
2023-01-21T04:20:47.804Z,15.07
2023-01-21T04:25:53.063Z,14.87
2023-01-21T04:30:56.916Z,15.03
2023-01-21T04:36:01.046Z,14.13
2023-01-21T04:41:05.839Z,15.20
2023-01-21T04:46:08.931Z,14.60
2023-01-21T04:51:12.137Z,14.97
2023-01-21T04:56:16.916Z,14.10
2023-01-21T05:01:20.075Z,13.53
2023-01-21T05:06:23.346Z,14.60
2023-01-21T05:11:27.890Z,15.23
2023-01-21T05:16:31.308Z,14.57
2023-01-21T05:21:34.744Z,12.87
2023-01-21T05:26:39.551Z,9.93
2023-01-21T05:31:43.603Z,9.13
2023-01-21T05:36:46.915Z,9.63
2023-01-21T05:41:51.611Z,9.97
2023-01-21T05:46:54.821Z,10.23
2023-01-21T05:51:58.165Z,9.17
2023-01-21T05:57:02.813Z,8.90
2023-01-21T06:02:07.043Z,9.80
2023-01-21T06:07:11.378Z,9.13
2023-01-21T06:12:15.814Z,8.57
2023-01-21T06:17:19.043Z,9.17
2023-01-21T06:22:22.377Z,8.60
2023-01-21T06:27:26.854Z,9.33
2023-01-21T06:32:30.138Z,9.00
2023-01-21T06:37:33.234Z,9.87
2023-01-21T06:42:37.873Z,10.87
2023-01-21T06:47:42.789Z,10.57
2023-01-21T06:52:47.859Z,10.47
2023-01-21T06:57:52.394Z,10.43
2023-01-21T07:02:57.959Z,9.60
2023-01-21T07:08:01.747Z,10.73
2023-01-21T07:13:06.636Z,11.67
2023-01-21T07:18:09.875Z,14.03
2023-01-21T07:23:13.100Z,12.27
2023-01-21T07:28:18.156Z,11.40
2023-01-21T07:33:21.447Z,10.83
2023-01-21T07:38:24.864Z,12.23
2023-01-21T07:43:29.400Z,12.27
2023-01-21T07:48:32.523Z,11.60
2023-01-21T07:53:35.939Z,9.60
2023-01-21T07:58:41.091Z,11.07
2023-01-21T08:03:44.463Z,10.33
2023-01-21T08:08:47.700Z,10.63
2023-01-21T08:13:55.852Z,9.37
2023-01-21T08:18:59.263Z,10.83
2023-01-21T08:24:03.694Z,11.27
2023-01-21T08:29:09.017Z,13.27
2023-01-21T08:34:12.374Z,11.73
2023-01-21T08:39:16.745Z,11.03
2023-01-21T08:44:21.240Z,10.40
2023-01-21T08:49:24.440Z,11.70
2023-01-21T08:54:27.971Z,18.30
2023-01-21T08:59:32.647Z,10.00
2023-01-21T09:04:35.909Z,9.90
2023-01-21T09:09:39.239Z,9.30
2023-01-21T09:14:43.986Z,10.03
2023-01-21T09:19:47.160Z,9.37
2023-01-21T09:24:50.402Z,9.13
2023-01-21T09:29:55.628Z,8.17
2023-01-21T09:34:58.738Z,8.43
2023-01-21T09:40:02.159Z,9.63
2023-01-21T09:45:07.847Z,9.23
2023-01-21T09:50:16.486Z,8.63
2023-01-21T09:55:21.487Z,9.13
2023-01-21T10:00:34.968Z,8.20
2023-01-21T10:05:54.579Z,8.07
2023-01-21T10:11:08.828Z,7.73
2023-01-21T10:16:23.163Z,8.40
2023-01-21T10:21:34.401Z,7.67
2023-01-21T10:26:38.146Z,7.93
2023-01-21T10:31:46.797Z,7.83
2023-01-21T10:37:07.157Z,7.73
2023-01-21T10:42:51.394Z,7.53
2023-01-21T10:48:05.620Z,6.93
2023-01-21T10:53:20.378Z,6.87
2023-01-21T10:58:31.662Z,6.93
2023-01-21T11:03:41.632Z,7.00
2023-01-21T11:08:48.512Z,7.43
2023-01-21T11:13:51.860Z,7.53
2023-01-21T11:19:01.642Z,8.57
2023-01-21T11:24:20.608Z,7.93
2023-01-21T11:29:25.691Z,9.00
2023-01-21T11:34:31.191Z,8.70
2023-01-21T11:39:38.311Z,8.70
2023-01-21T11:44:53.193Z,10.00
2023-01-21T11:50:04.310Z,10.40
2023-01-21T11:55:19.942Z,9.03
2023-01-21T12:00:27.146Z,8.77
2023-01-21T12:05:34.735Z,8.50
2023-01-21T12:10:45.571Z,7.77
2023-01-21T12:16:18.003Z,8.23
2023-01-21T12:21:36.360Z,8.23
2023-01-21T12:26:45.519Z,8.07
2023-01-21T12:31:54.636Z,7.53
2023-01-21T12:37:04.734Z,8.37
2023-01-21T12:42:11.810Z,7.00
2023-01-21T12:47:30.243Z,7.50
2023-01-21T12:52:43.113Z,7.47
2023-01-21T12:57:53.966Z,7.13
2023-01-21T13:03:11.379Z,8.63
2023-01-21T13:08:32.733Z,8.63
2023-01-21T13:13:41.827Z,8.50
2023-01-21T13:18:51.662Z,8.20
2023-01-21T13:24:09.820Z,8.37
2023-01-21T13:29:20.028Z,8.10
2023-01-21T13:34:30.927Z,7.63
2023-01-21T13:39:45.498Z,9.20
2023-01-21T13:45:08.248Z,9.03
2023-01-21T13:50:25.393Z,9.23
2023-01-21T13:55:41.319Z,9.10
2023-01-21T14:00:54.203Z,8.83
2023-01-21T14:06:05.715Z,7.87
2023-01-21T14:11:18.677Z,8.50
2023-01-21T14:16:57.647Z,9.00
2023-01-21T14:22:25.052Z,9.43
2023-01-21T14:27:39.120Z,8.93
2023-01-21T14:32:47.232Z,9.30
2023-01-21T14:37:59.022Z,9.27
2023-01-21T14:43:06.754Z,9.70
2023-01-21T14:48:31.942Z,8.77
2023-01-21T14:53:44.719Z,9.03
2023-01-21T14:58:51.409Z,9.90
2023-01-21T15:03:54.780Z,9.37
2023-01-21T15:09:00.546Z,9.73
2023-01-21T15:14:14.408Z,9.67
2023-01-21T15:19:29.865Z,9.83
2023-01-21T15:24:40.200Z,9.70
2023-01-21T15:29:47.595Z,10.23
2023-01-21T15:34:55.300Z,9.23
2023-01-21T15:40:00.947Z,9.13
2023-01-21T15:45:24.828Z,9.63
2023-01-21T15:50:32.286Z,9.33
2023-01-21T15:56:03.281Z,10.13
2023-01-21T16:01:15.779Z,9.87
2023-01-21T16:06:24.015Z,9.03
2023-01-21T16:11:42.232Z,10.07
2023-01-21T16:16:59.567Z,9.37
2023-01-21T16:22:16.871Z,9.27
2023-01-21T16:27:22.411Z,9.43
2023-01-21T16:32:27.324Z,9.13
2023-01-21T16:37:31.924Z,8.90
2023-01-21T16:42:37.576Z,8.97
2023-01-21T16:47:42.351Z,9.97
2023-01-21T16:52:46.200Z,10.40
2023-01-21T16:57:50.849Z,9.70
2023-01-21T17:02:55.711Z,9.37
2023-01-21T17:08:01.866Z,10.13
2023-01-21T17:13:12.275Z,8.83
2023-01-21T17:18:22.875Z,8.87
2023-01-21T17:23:28.595Z,7.97
2023-01-21T17:28:34.260Z,9.00
2023-01-21T17:33:38.960Z,10.20
2023-01-21T17:38:47.624Z,8.50
2023-01-21T17:43:53.425Z,7.63
2023-01-21T17:49:06.142Z,7.77
2023-01-21T17:54:20.768Z,6.47
2023-01-21T17:59:39.290Z,7.27
2023-01-21T18:04:44.625Z,6.40
2023-01-21T18:09:48.012Z,6.17
2023-01-21T18:14:51.113Z,5.87
2023-01-21T18:19:57.795Z,6.00
2023-01-21T18:25:02.992Z,4.60
2023-01-21T18:30:14.210Z,5.47
2023-01-21T18:35:20.685Z,5.03
2023-01-21T18:40:25.965Z,4.77
2023-01-21T18:45:30.110Z,4.63
2023-01-21T18:50:34.830Z,4.17
2023-01-21T18:55:38.078Z,3.97
2023-01-21T19:00:42.044Z,3.60
2023-01-21T19:05:48.376Z,3.43
2023-01-21T19:10:51.753Z,3.30
2023-01-21T19:15:55.052Z,2.90
2023-01-21T19:20:59.581Z,2.87
2023-01-21T19:26:05.631Z,3.20
2023-01-21T19:31:08.926Z,2.80
2023-01-21T19:36:17.609Z,3.30
2023-01-21T19:41:21.182Z,2.90
2023-01-21T19:46:28.928Z,2.70
2023-01-21T19:51:34.305Z,11.37
2023-01-21T19:56:38.109Z,7.53
2023-01-21T20:01:42.860Z,2.47
2023-01-21T20:06:49.123Z,2.83
2023-01-21T20:11:52.446Z,2.77
2023-01-21T20:16:58.278Z,2.50
2023-01-21T20:22:03.223Z,2.33
2023-01-21T20:27:09.362Z,1.80
2023-01-21T20:32:21.920Z,2.33
2023-01-21T20:37:34.102Z,2.50
2023-01-21T20:42:37.555Z,2.10
2023-01-21T20:47:49.722Z,2.67
2023-01-21T20:52:56.596Z,3.70
2023-01-21T20:58:01.051Z,3.33
2023-01-21T21:03:04.627Z,2.70
2023-01-21T21:08:16.219Z,2.20
2023-01-21T21:13:19.928Z,2.50
2023-01-21T21:18:23.367Z,1.90
2023-01-21T21:23:28.279Z,2.07
2023-01-21T21:28:31.466Z,1.70
2023-01-21T21:33:34.504Z,2.00
2023-01-21T21:38:39.658Z,1.70
2023-01-21T21:43:43.698Z,2.07
2023-01-21T21:48:46.893Z,1.93
2023-01-21T21:53:51.839Z,2.23
2023-01-21T21:58:56.205Z,2.50
2023-01-21T22:04:01.644Z,1.70
2023-01-21T22:09:06.417Z,1.67
2023-01-21T22:14:15.780Z,1.83
2023-01-21T22:19:18.979Z,1.93
2023-01-21T22:24:28.103Z,2.03
2023-01-21T22:29:31.855Z,1.90
2023-01-21T22:34:35.276Z,2.47
2023-01-21T22:39:39.747Z,2.70
2023-01-21T22:44:42.797Z,2.70
2023-01-21T22:49:48.183Z,3.03
2023-01-21T22:54:52.732Z,2.17
2023-01-21T22:59:56.044Z,2.33
2023-01-21T23:04:59.713Z,2.20
2023-01-21T23:10:04.413Z,2.37
2023-01-21T23:15:10.660Z,2.17
2023-01-21T23:20:14.533Z,3.10
2023-01-21T23:25:23.469Z,3.30
2023-01-21T23:30:27.038Z,3.80
2023-01-21T23:35:34.202Z,3.13
2023-01-21T23:40:39.132Z,3.10
2023-01-21T23:45:42.286Z,3.00
2023-01-21T23:50:45.596Z,3.00
2023-01-21T23:55:50.040Z,3.20
